Time;durP1;ratioP1;P1;durP2;ratioP2;P2;SDS_P1;SDS_P2;PMS_P1;PMS_P2;Temp;Humidity;BMP_temperature;BMP_pressure;BME280_temperature;BME280_humidity;BME280_pressure;Samples;Min_cycle;Max_cycle;Signal;HPM_P1;HPM_P2
2021/05/29 00:00:54;;;;;;;0.77;0.77;;;12.60;78.30;;;;;;5012158;28;20026;-70
2021/05/29 00:03:21;;;;;;;1.15;0.63;;;12.50;78.40;;;;;;5015356;28;20026;-71
2021/05/29 00:05:46;;;;;;;1.67;0.70;;;12.50;78.50;;;;;;5014928;28;20022;-71
2021/05/29 00:08:12;;;;;;;0.45;0.45;;;12.50;78.50;;;;;;5015413;28;20037;-71
2021/05/29 00:10:40;;;;;;;1.50;0.75;;;12.50;78.50;;;;;;5015447;28;20025;-71
2021/05/29 00:13:06;;;;;;;0.50;0.50;;;12.50;78.60;;;;;;5015421;28;20041;-71
2021/05/29 00:15:33;;;;;;;0.85;0.75;;;12.40;78.60;;;;;;4998219;28;20101;-71
2021/05/29 00:17:58;;;;;;;0.70;0.70;;;12.40;78.70;;;;;;4995630;28;20026;-70
2021/05/29 00:20:24;;;;;;;1.30;1.05;;;12.30;78.70;;;;;;4995115;28;20021;-71
2021/05/29 00:22:50;;;;;;;1.30;1.00;;;12.30;78.80;;;;;;4995573;28;20077;-70
2021/05/29 00:25:16;;;;;;;0.98;0.98;;;12.20;78.90;;;;;;4978138;28;20027;-71
2021/05/29 00:27:42;;;;;;;0.80;0.80;;;12.20;79.00;;;;;;4995455;28;20034;-71
2021/05/29 00:30:10;;;;;;;1.23;1.00;;;12.20;79.10;;;;;;4996526;28;20092;-70
2021/05/29 00:32:37;;;;;;;0.77;0.77;;;12.20;79.00;;;;;;4995397;28;20106;-70
2021/05/29 00:35:03;;;;;;;1.42;1.13;;;12.20;79.10;;;;;;4994854;28;20026;-71
2021/05/29 00:37:29;;;;;;;1.10;0.90;;;12.20;79.10;;;;;;4995162;28;20041;-70
2021/05/29 00:39:54;;;;;;;1.08;1.00;;;12.10;79.20;;;;;;4995289;28;20018;-71
2021/05/29 00:42:20;;;;;;;1.15;1.08;;;12.10;79.40;;;;;;4995243;28;20023;-71
2021/05/29 00:44:50;;;;;;;0.95;0.95;;;12.00;79.40;;;;;;4996102;28;20027;-71
2021/05/29 00:47:21;;;;;;;1.38;1.23;;;12.00;79.50;;;;;;4995296;28;20112;-71
2021/05/29 00:49:47;;;;;;;1.17;1.08;;;11.90;79.50;;;;;;4994503;28;20038;-71
2021/05/29 00:52:14;;;;;;;0.98;0.95;;;11.90;79.50;;;;;;4994870;28;20019;-71
2021/05/29 00:54:44;;;;;;;0.95;0.85;;;11.90;79.60;;;;;;4994955;28;20117;-71
2021/05/29 00:57:10;;;;;;;;;;;11.80;79.60;;;;;;4995408;28;20030;-71
2021/05/29 00:59:37;;;;;;;1.30;1.20;;;11.80;79.50;;;;;;4988822;28;19918;-70
2021/05/29 01:02:04;;;;;;;0.75;0.75;;;11.70;79.60;;;;;;4994685;28;20467;-70
2021/05/29 01:04:29;;;;;;;0.93;0.70;;;11.70;79.70;;;;;;4994402;28;20026;-70
2021/05/29 01:06:55;;;;;;;1.15;1.05;;;11.70;79.80;;;;;;4994614;28;20134;-71
2021/05/29 01:09:20;;;;;;;1.35;1.02;;;11.70;80.50;;;;;;4994612;28;20121;-71
2021/05/29 01:11:46;;;;;;;1.73;1.15;;;11.70;80.50;;;;;;4994722;28;20045;-70
2021/05/29 01:14:12;;;;;;;1.00;0.90;;;11.70;79.80;;;;;;4994215;28;20109;-70
2021/05/29 01:19:04;;;;;;;0.80;0.80;;;11.60;79.90;;;;;;4994380;28;20034;-71
2021/05/29 01:21:30;;;;;;;0.70;0.70;;;11.60;79.90;;;;;;4994412;28;20475;-71
2021/05/29 01:23:56;;;;;;;0.75;0.70;;;11.50;79.90;;;;;;4994463;28;20076;-70
2021/05/29 01:26:22;;;;;;;1.00;1.00;;;11.50;80.00;;;;;;4994407;28;20486;-71
2021/05/29 01:28:53;;;;;;;1.02;0.85;;;11.50;80.10;;;;;;4994294;28;20156;-71
2021/05/29 01:31:19;;;;;;;0.98;0.90;;;11.40;80.00;;;;;;4994275;28;20033;-70
2021/05/29 01:33:45;;;;;;;0.63;0.63;;;11.40;80.10;;;;;;4994003;28;20027;-70
2021/05/29 01:36:11;;;;;;;0.73;0.70;;;11.40;80.20;;;;;;4976729;28;20018;-70
2021/05/29 01:38:39;;;;;;;0.98;0.95;;;11.30;80.20;;;;;;4994053;28;20118;-70
2021/05/29 01:41:11;;;;;;;0.80;0.80;;;11.30;80.30;;;;;;4993950;28;20049;-70
2021/05/29 01:43:39;;;;;;;0.80;0.80;;;11.30;80.30;;;;;;4994657;28;20391;-70
2021/05/29 01:46:05;;;;;;;1.10;1.05;;;11.20;80.30;;;;;;4994129;28;20018;-71
2021/05/29 01:48:39;;;;;;;0.95;0.95;;;11.20;80.40;;;;;;4993648;28;20101;-71
2021/05/29 01:51:06;;;;;;;1.45;1.00;;;11.20;80.40;;;;;;4994015;28;20061;-70
2021/05/29 01:53:32;;;;;;;0.90;0.90;;;11.10;80.50;;;;;;4993960;28;20044;-71
2021/05/29 01:55:58;;;;;;;1.23;1.00;;;11.10;80.60;;;;;;4994035;28;20073;-71
2021/05/29 01:58:24;;;;;;;1.10;1.02;;;11.00;80.60;;;;;;4993713;28;20047;-71
2021/05/29 02:00:50;;;;;;;1.10;1.00;;;10.90;80.70;;;;;;4993835;28;20034;-71
2021/05/29 02:03:15;;;;;;;1.15;1.05;;;10.90;80.70;;;;;;4993435;28;20109;-71
2021/05/29 02:05:41;;;;;;;0.80;0.80;;;10.90;80.80;;;;;;4993903;28;20368;-71
2021/05/29 02:08:09;;;;;;;0.80;0.80;;;10.90;80.90;;;;;;4993838;28;20027;-70
2021/05/29 02:10:37;;;;;;;1.13;0.90;;;10.80;80.90;;;;;;4993782;28;20055;-70
2021/05/29 02:13:05;;;;;;;1.10;0.95;;;10.80;80.90;;;;;;4993699;28;20031;-70
2021/05/29 02:15:34;;;;;;;0.70;0.70;;;10.80;80.90;;;;;;4994086;28;20352;-71
2021/05/29 02:18:03;;;;;;;1.00;0.98;;;10.80;80.90;;;;;;4993188;28;20031;-70
2021/05/29 02:20:52;;;;;;;1.40;1.20;;;10.80;80.90;;;;;;4993663;28;20027;-70
2021/05/29 02:23:19;;;;;;;0.98;0.93;;;10.90;80.90;;;;;;4993766;28;20046;-70
2021/05/29 02:25:46;;;;;;;2.05;1.20;;;10.80;80.80;;;;;;4995720;28;20024;-70
2021/05/29 02:28:12;;;;;;;1.23;1.10;;;10.90;80.70;;;;;;4997641;28;20033;-70
2021/05/29 02:30:38;;;;;;;0.82;0.82;;;10.80;80.60;;;;;;4997152;28;20375;-70
2021/05/29 02:33:04;;;;;;;1.75;0.90;;;10.80;80.50;;;;;;4997412;28;20030;-70
2021/05/29 02:35:30;;;;;;;0.73;0.73;;;10.80;80.50;;;;;;4997483;28;20022;-70
2021/05/29 02:37:56;;;;;;;1.83;1.55;;;10.80;80.60;;;;;;4997439;28;20038;-70
2021/05/29 02:40:21;;;;;;;0.93;0.93;;;10.80;80.60;;;;;;4997493;28;20072;-70
2021/05/29 02:42:47;;;;;;;1.10;1.00;;;10.80;80.60;;;;;;4997373;28;20030;-70
2021/05/29 02:45:13;;;;;;;1.20;1.10;;;10.80;80.60;;;;;;4996844;28;20095;-70
2021/05/29 02:47:39;;;;;;;1.45;1.35;;;10.80;80.70;;;;;;4997293;28;20434;-70
2021/05/29 02:50:05;;;;;;;1.52;1.38;;;10.70;81.30;;;;;;4997266;28;20067;-70
2021/05/29 02:52:31;;;;;;;1.27;0.82;;;10.70;80.80;;;;;;4997229;28;20052;-71
2021/05/29 02:54:56;;;;;;;1.20;1.05;;;10.70;80.90;;;;;;4997203;28;20019;-70
2021/05/29 02:57:22;;;;;;;1.48;0.90;;;10.60;80.90;;;;;;4996919;28;20113;-70
2021/05/29 02:59:47;;;;;;;0.90;0.90;;;10.60;80.90;;;;;;4996562;28;20398;-70
2021/05/29 03:02:14;;;;;;;0.80;0.80;;;10.60;81.00;;;;;;4979465;28;20501;-70
2021/05/29 03:04:39;;;;;;;1.15;1.05;;;10.60;81.10;;;;;;4997020;28;20024;-70
2021/05/29 03:07:05;;;;;;;1.08;0.93;;;10.50;81.10;;;;;;4997144;28;20030;-70
2021/05/29 03:09:32;;;;;;;0.98;0.98;;;10.50;81.10;;;;;;4997034;28;20057;-70
2021/05/29 03:11:58;;;;;;;0.80;0.80;;;10.50;81.30;;;;;;4996889;28;20015;-70
2021/05/29 03:14:24;;;;;;;1.35;0.90;;;10.40;81.30;;;;;;4996421;28;20109;-70
2021/05/29 03:16:50;;;;;;;1.08;0.90;;;10.40;81.30;;;;;;4996723;28;20102;-70
2021/05/29 03:19:16;;;;;;;1.70;1.02;;;10.40;81.40;;;;;;4996786;28;20030;-70
2021/05/29 03:21:43;;;;;;;1.30;1.20;;;10.40;81.50;;;;;;4996826;28;20440;-70
2021/05/29 03:24:08;;;;;;;0.82;0.82;;;10.40;81.50;;;;;;4996645;28;20025;-70
2021/05/29 03:26:34;;;;;;;1.38;1.00;;;10.30;81.50;;;;;;4996638;28;20101;-70
2021/05/29 03:29:00;;;;;;;0.90;0.90;;;10.30;81.50;;;;;;4996225;28;20030;-70
2021/05/29 03:31:27;;;;;;;1.30;1.20;;;10.30;81.50;;;;;;4996506;28;20026;-70
2021/05/29 03:33:53;;;;;;;1.42;1.27;;;10.30;81.60;;;;;;4996351;28;20027;-70
2021/05/29 03:36:18;;;;;;;1.60;1.10;;;10.30;81.60;;;;;;4996008;28;20037;-70
2021/05/29 03:38:44;;;;;;;1.20;1.02;;;10.30;81.60;;;;;;4996312;28;20133;-70
2021/05/29 03:41:10;;;;;;;1.50;1.35;;;10.20;81.60;;;;;;4996398;28;20019;-70
2021/05/29 03:43:36;;;;;;;1.17;1.00;;;10.20;81.70;;;;;;4995826;28;20030;-70
2021/05/29 03:46:02;;;;;;;1.58;1.20;;;10.30;81.70;;;;;;5007545;28;20022;-70
2021/05/29 03:48:27;;;;;;;2.10;1.40;;;10.20;81.70;;;;;;4996098;28;20052;-71
2021/05/29 03:50:53;;;;;;;1.00;0.95;;;10.30;81.70;;;;;;4996108;28;20027;-70
2021/05/29 03:53:19;;;;;;;1.30;1.20;;;10.30;81.70;;;;;;4996151;28;20023;-70
2021/05/29 03:55:44;;;;;;;1.90;1.30;;;10.30;81.80;;;;;;4995593;28;20029;-71
2021/05/29 03:58:10;;;;;;;1.13;1.02;;;10.30;81.70;;;;;;4995243;28;20051;-70
2021/05/29 04:00:35;;;;;;;1.35;1.10;;;10.30;81.60;;;;;;5003194;28;20503;-70
2021/05/29 04:03:01;;;;;;;1.05;1.00;;;10.30;81.60;;;;;;5002508;28;20029;-69
2021/05/29 04:05:27;;;;;;;0.95;0.90;;;10.30;81.60;;;;;;5000770;28;20490;-71
2021/05/29 04:07:53;;;;;;;1.40;1.20;;;10.30;81.60;;;;;;4995675;28;20041;-71
2021/05/29 04:10:27;;;;;;;2.08;1.88;;;10.30;81.60;;;;;;4999347;28;20069;-71
2021/05/29 04:12:53;;;;;;;1.50;1.13;;;10.40;81.70;;;;;;5011066;28;20022;-71
2021/05/29 04:15:19;;;;;;;1.52;1.13;;;10.40;81.70;;;;;;5014859;28;20072;-71
2021/05/29 04:17:46;;;;;;;1.35;1.15;;;10.40;81.70;;;;;;5015049;28;20037;-71
2021/05/29 04:20:15;;;;;;;1.20;1.10;;;10.40;81.60;;;;;;5015172;28;20018;-71
2021/05/29 04:22:40;;;;;;;0.82;0.82;;;10.40;81.60;;;;;;5015064;28;20109;-71
2021/05/29 04:25:09;;;;;;;0.85;0.73;;;10.40;81.50;;;;;;5014942;28;20105;-71
2021/05/29 04:27:36;;;;;;;1.45;1.05;;;10.50;81.50;;;;;;5014388;28;20034;-71
2021/05/29 04:30:05;;;;;;;1.30;0.90;;;10.50;81.50;;;;;;5014838;28;20540;-71
2021/05/29 04:32:31;;;;;;;1.33;1.10;;;10.50;81.50;;;;;;5014915;28;20168;-71
2021/05/29 04:34:57;;;;;;;1.52;1.10;;;10.60;81.50;;;;;;5014675;28;20502;-71
2021/05/29 04:37:22;;;;;;;0.75;0.73;;;10.70;81.50;;;;;;5000305;28;20514;-71
2021/05/29 04:39:48;;;;;;;0.68;0.68;;;10.70;81.50;;;;;;4995316;28;20018;-71
2021/05/29 04:42:13;;;;;;;0.88;0.85;;;10.70;81.30;;;;;;4994720;28;20116;-71
2021/05/29 04:44:39;;;;;;;1.08;0.98;;;10.80;81.30;;;;;;5000487;28;20458;-71
2021/05/29 04:47:04;;;;;;;1.30;1.20;;;10.80;81.20;;;;;;5001933;28;20026;-71
2021/05/29 04:49:31;;;;;;;0.80;0.80;;;10.80;81.10;;;;;;4994720;28;20023;-71
2021/05/29 04:51:58;;;;;;;1.48;1.00;;;10.80;81.10;;;;;;4994851;28;20434;-71
2021/05/29 04:54:24;;;;;;;2.58;1.15;;;10.90;81.10;;;;;;4994897;28;20080;-71
2021/05/29 04:56:49;;;;;;;0.73;0.73;;;10.90;81.10;;;;;;4996056;28;20061;-71
2021/05/29 04:59:15;;;;;;;0.80;0.80;;;10.90;81.10;;;;;;5010596;28;20458;-71
2021/05/29 05:01:40;;;;;;;1.25;1.02;;;10.90;81.10;;;;;;5014394;28;20053;-71
2021/05/29 05:04:07;;;;;;;1.40;1.20;;;11.00;81.20;;;;;;5014333;28;20026;-71
2021/05/29 05:06:33;;;;;;;1.35;1.10;;;11.00;81.20;;;;;;5014382;28;20014;-71
2021/05/29 05:08:58;;;;;;;1.10;1.10;;;11.10;81.20;;;;;;5014427;28;20072;-70
2021/05/29 05:11:24;;;;;;;1.63;1.42;;;11.10;81.10;;;;;;5013620;28;20025;-71
2021/05/29 05:13:50;;;;;;;1.80;1.30;;;11.20;81.10;;;;;;5014064;28;20120;-71
2021/05/29 05:16:16;;;;;;;1.48;1.25;;;11.30;81.20;;;;;;5014186;28;20123;-71
2021/05/29 05:18:42;;;;;;;1.63;1.42;;;11.30;81.20;;;;;;5014063;28;20030;-71
2021/05/29 05:21:08;;;;;;;1.50;1.35;;;11.40;81.20;;;;;;4996364;28;20021;-71
2021/05/29 05:23:34;;;;;;;1.10;1.02;;;11.40;81.10;;;;;;5013969;28;20151;-71
2021/05/29 05:26:00;;;;;;;1.75;1.55;;;11.50;81.10;;;;;;5013477;28;20053;-71
2021/05/29 05:28:27;;;;;;;2.35;1.85;;;11.60;81.00;;;;;;5013979;28;20356;-71
2021/05/29 05:30:54;;;;;;;2.00;1.90;;;11.60;80.90;;;;;;5013918;28;20486;-71
2021/05/29 05:33:21;;;;;;;1.40;1.10;;;11.70;81.00;;;;;;5013831;28;20036;-71
2021/05/29 05:35:47;;;;;;;2.05;1.42;;;11.80;81.00;;;;;;5013631;28;20450;-71
2021/05/29 05:38:13;;;;;;;1.38;1.13;;;11.80;80.90;;;;;;5013756;28;20073;-72
2021/05/29 05:40:38;;;;;;;1.40;1.30;;;11.90;80.90;;;;;;5013315;28;20045;-71
2021/05/29 05:43:04;;;;;;;2.13;1.58;;;11.90;80.90;;;;;;5013784;28;20026;-71
2021/05/29 05:45:30;;;;;;;1.63;1.27;;;12.00;80.90;;;;;;5013841;28;20080;-71
2021/05/29 05:47:55;;;;;;;2.03;1.40;;;12.10;80.90;;;;;;5013524;28;20018;-71
2021/05/29 05:50:21;;;;;;;2.45;1.20;;;12.20;80.90;;;;;;4995993;28;20021;-71
2021/05/29 05:52:47;;;;;;;1.83;1.30;;;12.20;80.80;;;;;;5013557;28;20041;-71
2021/05/29 05:55:13;;;;;;;1.90;1.60;;;12.30;80.80;;;;;;5013043;28;20018;-71
2021/05/29 05:57:38;;;;;;;1.77;1.27;;;12.40;80.80;;;;;;5013685;28;20034;-71
2021/05/29 06:00:07;;;;;;;1.50;1.20;;;12.40;80.80;;;;;;4995575;28;20046;-70
2021/05/29 06:02:32;;;;;;;2.60;1.48;;;12.50;80.80;;;;;;5013646;28;20026;-71
2021/05/29 06:04:58;;;;;;;1.95;1.77;;;12.70;80.80;;;;;;4996812;28;20099;-71
2021/05/29 06:07:24;;;;;;;1.13;1.02;;;12.70;80.70;;;;;;4991211;28;20027;-71
2021/05/29 06:09:49;;;;;;;1.42;1.02;;;12.80;80.60;;;;;;4973122;28;20030;-71
2021/05/29 06:12:15;;;;;;;1.38;1.02;;;12.90;80.60;;;;;;4990939;28;20030;-71
2021/05/29 06:20:13;;;;;;;2.20;1.70;;;13.10;80.30;;;;;;4990861;28;20133;-71
2021/05/29 06:22:42;;;;;;;1.77;1.63;;;13.20;80.40;;;;;;4990362;28;20454;-71
2021/05/29 06:25:12;;;;;;;1.10;0.95;;;13.30;80.30;;;;;;4990982;28;20029;-72
2021/05/29 06:27:38;;;;;;;1.70;1.38;;;13.40;80.30;;;;;;4990610;28;20101;-72
2021/05/29 06:30:06;;;;;;;1.45;1.20;;;13.50;80.30;;;;;;4996102;28;20117;-72
2021/05/29 06:32:31;;;;;;;1.48;1.13;;;13.60;80.20;;;;;;4990712;28;20403;-72
2021/05/29 06:34:57;;;;;;;1.80;1.20;;;13.70;80.20;;;;;;4990777;28;20026;-72
2021/05/29 06:37:22;;;;;;;1.88;1.55;;;13.80;80.00;;;;;;4990209;28;20042;-72
2021/05/29 06:39:48;;;;;;;1.55;1.38;;;13.80;80.00;;;;;;4990503;28;20044;-72
2021/05/29 06:42:14;;;;;;;2.78;1.58;;;13.80;80.00;;;;;;4973065;28;20080;-72
2021/05/29 06:44:40;;;;;;;1.20;1.10;;;13.80;80.00;;;;;;4995124;28;20030;-72
2021/05/29 06:47:06;;;;;;;1.63;1.33;;;13.90;80.00;;;;;;4973046;28;20035;-72
2021/05/29 06:49:34;;;;;;;2.33;1.60;;;13.90;80.00;;;;;;4990613;28;20483;-72
2021/05/29 06:52:13;;;;;;;1.77;1.60;;;13.90;80.10;;;;;;4989879;28;20023;-72
2021/05/29 06:59:58;;;;;;;1.30;1.20;;;14.20;80.00;;;;;;4990628;28;20062;-72
2021/05/29 07:02:23;;;;;;;1.58;1.20;;;14.30;79.90;;;;;;5001712;28;20120;-72
2021/05/29 07:04:51;;;;;;;1.48;1.25;;;14.30;79.90;;;;;;5000257;28;20030;-72
2021/05/29 07:07:17;;;;;;;1.27;1.02;;;14.40;80.00;;;;;;5006720;28;20034;-72
2021/05/29 07:09:42;;;;;;;0.90;0.90;;;14.40;79.90;;;;;;5010022;28;20083;-72
2021/05/29 07:12:08;;;;;;;1.73;1.50;;;14.50;79.90;;;;;;5001285;28;20471;-72
2021/05/29 07:14:33;;;;;;;1.55;1.20;;;14.60;79.70;;;;;;4994220;28;20161;-72
2021/05/29 07:17:01;;;;;;;1.77;1.50;;;14.60;79.60;;;;;;4979588;28;20474;-72
2021/05/29 07:19:27;;;;;;;2.03;1.55;;;14.60;79.50;;;;;;5001588;28;20022;-71
2021/05/29 07:21:52;;;;;;;1.77;1.20;;;14.70;79.70;;;;;;4994045;28;20028;-71
2021/05/29 07:24:19;;;;;;;1.70;1.40;;;14.80;79.70;;;;;;4995789;28;20026;-71
2021/05/29 07:26:45;;;;;;;1.27;1.15;;;14.80;79.40;;;;;;5006282;28;20125;-72
2021/05/29 07:29:11;;;;;;;2.00;1.77;;;14.90;79.50;;;;;;5016101;28;20037;-72
2021/05/29 07:31:37;;;;;;;1.75;1.50;;;14.90;79.30;;;;;;4998531;28;20109;-71
2021/05/29 07:34:03;;;;;;;1.92;1.60;;;14.90;79.50;;;;;;5015860;28;20410;-72
2021/05/29 07:36:29;;;;;;;1.38;1.25;;;14.90;79.40;;;;;;4997748;28;20018;-72
2021/05/29 07:38:54;;;;;;;1.23;1.10;;;14.90;79.30;;;;;;5015868;28;20040;-73
2021/05/29 07:41:23;;;;;;;4.40;2.33;;;15.10;79.40;;;;;;5013281;28;20041;-72
2021/05/29 07:43:49;;;;;;;2.40;1.50;;;15.10;79.10;;;;;;5015862;28;20394;-73
2021/05/29 07:46:17;;;;;;;2.08;1.48;;;15.20;79.10;;;;;;5015767;28;20269;-72
2021/05/29 07:48:42;;;;;;;2.60;2.30;;;15.20;79.00;;;;;;5015783;28;20072;-72
2021/05/29 07:51:09;;;;;;;1.30;1.20;;;15.30;78.90;;;;;;5015322;28;20022;-72
2021/05/29 07:53:40;;;;;;;2.10;1.40;;;15.30;79.10;;;;;;5015716;28;20044;-72
2021/05/29 07:56:08;;;;;;;1.73;1.27;;;15.40;79.10;;;;;;4996246;28;20438;-72
2021/05/29 07:58:34;;;;;;;2.35;1.77;;;15.40;78.90;;;;;;5012618;28;20112;-72
2021/05/29 08:01:00;;;;;;;2.15;1.58;;;15.40;78.80;;;;;;5013458;28;20026;-72
2021/05/29 08:03:27;;;;;;;2.72;1.90;;;15.40;78.80;;;;;;5015453;28;20022;-72
2021/05/29 08:05:55;;;;;;;2.03;1.60;;;15.50;78.80;;;;;;5011789;28;20026;-72
2021/05/29 08:08:22;;;;;;;1.33;1.20;;;15.60;78.70;;;;;;4995818;28;20018;-72
2021/05/29 08:10:49;;;;;;;1.42;1.30;;;15.70;78.70;;;;;;4995838;28;20095;-72
2021/05/29 08:13:19;;;;;;;1.73;1.58;;;15.80;78.40;;;;;;4995900;28;20018;-72
2021/05/29 08:15:45;;;;;;;;;;;15.80;78.30;;;;;;4984339;28;20484;-73
2021/05/29 08:18:12;;;;;;;1.90;1.48;;;15.70;78.70;;;;;;5011784;28;19931;-73
2021/05/29 08:20:38;;;;;;;1.92;1.35;;;15.80;78.60;;;;;;4988386;28;20403;-73
2021/05/29 08:23:05;;;;;;;1.23;1.17;;;16.00;78.50;;;;;;4991705;28;20080;-72
2021/05/29 08:25:32;;;;;;;1.70;1.38;;;16.10;78.30;;;;;;5015210;28;20076;-71
2021/05/29 08:27:58;;;;;;;2.20;1.50;;;16.20;78.10;;;;;;4997560;28;20034;-71
2021/05/29 08:30:24;;;;;;;1.55;1.40;;;16.40;77.80;;;;;;5010697;28;20474;-72
2021/05/29 08:32:50;;;;;;;1.33;1.10;;;16.40;77.70;;;;;;5012664;28;20113;-72
2021/05/29 08:35:15;;;;;;;1.85;1.42;;;16.50;77.60;;;;;;5014965;28;20494;-72
2021/05/29 08:37:44;;;;;;;2.28;1.80;;;16.60;77.50;;;;;;5014778;28;20034;-72
2021/05/29 08:40:10;;;;;;;2.30;1.67;;;16.40;77.70;;;;;;5014834;28;20068;-72
2021/05/29 08:42:36;;;;;;;1.83;1.73;;;16.20;77.90;;;;;;5012434;28;20049;-71
2021/05/29 08:45:04;;;;;;;1.50;1.40;;;16.00;78.30;;;;;;5011065;28;20049;-72
2021/05/29 08:47:29;;;;;;;2.17;1.48;;;16.00;78.50;;;;;;5012806;28;20026;-72
2021/05/29 08:49:55;;;;;;;1.48;1.38;;;16.10;78.30;;;;;;5013983;28;20025;-72
2021/05/29 08:52:20;;;;;;;2.17;1.48;;;16.30;78.20;;;;;;5013816;28;20030;-71
2021/05/29 08:54:46;;;;;;;2.00;1.75;;;16.50;77.60;;;;;;5014556;28;20045;-72
2021/05/29 08:57:18;;;;;;;1.10;1.00;;;16.80;77.30;;;;;;5014457;28;20038;-72
2021/05/29 08:59:44;;;;;;;1.40;1.27;;;17.00;76.80;;;;;;5014308;28;20046;-72
2021/05/29 09:02:10;;;;;;;1.90;1.40;;;17.30;76.40;;;;;;5013887;28;20128;-71
2021/05/29 09:05:05;;;;;;;2.22;1.63;;;17.60;76.00;;;;;;4996624;28;20018;-71
2021/05/29 09:07:30;;;;;;;2.08;1.73;;;17.80;75.50;;;;;;5014582;28;20443;-71
2021/05/29 09:10:19;;;;;;;1.63;1.40;;;17.80;75.70;;;;;;5014283;28;20030;-72
2021/05/29 09:13:10;;;;;;;1.55;1.23;;;17.90;75.80;;;;;;5014214;28;20033;-72
2021/05/29 09:15:59;;;;;;;2.97;2.13;;;17.90;75.90;;;;;;5014180;28;20033;-72
2021/05/29 09:18:25;;;;;;;3.35;2.03;;;17.70;76.00;;;;;;5013775;28;20037;-72
2021/05/29 09:20:51;;;;;;;2.65;2.00;;;17.50;76.60;;;;;;5014050;28;20065;-72
2021/05/29 09:23:17;;;;;;;2.35;1.80;;;17.30;77.00;;;;;;5013963;28;20106;-72
2021/05/29 09:25:52;;;;;;;1.90;1.70;;;17.50;77.00;;;;;;5013867;28;20475;-72
2021/05/29 09:28:25;;;;;;;2.05;1.63;;;17.50;76.70;;;;;;5014087;28;20462;-72
2021/05/29 09:30:52;;;;;;;1.27;1.17;;;17.60;76.60;;;;;;5013456;28;20010;-72
2021/05/29 09:33:21;;;;;;;2.42;1.90;;;17.50;76.50;;;;;;5013758;28;20108;-72
2021/05/29 09:36:11;;;;;;;1.88;1.52;;;17.60;76.40;;;;;;5013839;28;20084;-72
2021/05/29 09:38:54;;;;;;;2.13;1.50;;;17.50;76.40;;;;;;5013747;28;20478;-72
2021/05/29 09:41:25;;;;;;;1.40;1.25;;;17.60;77.20;;;;;;5013636;28;20049;-72
2021/05/29 09:44:01;;;;;;;2.28;1.55;;;17.80;76.30;;;;;;5013823;28;20076;-72
2021/05/29 09:46:27;;;;;;;1.70;1.55;;;17.90;75.90;;;;;;5013208;28;20022;-72
2021/05/29 09:49:02;;;;;;;1.05;1.02;;;18.00;75.70;;;;;;5013624;28;20378;-72
2021/05/29 09:51:33;;;;;;;2.00;1.70;;;18.10;75.50;;;;;;5013514;28;20029;-72
2021/05/29 09:54:06;;;;;;;2.38;1.85;;;18.20;75.30;;;;;;5013653;28;20022;-72
2021/05/29 09:56:40;;;;;;;2.50;1.63;;;18.20;75.40;;;;;;5013858;28;20029;-72
2021/05/29 09:59:10;;;;;;;1.88;1.58;;;18.30;75.40;;;;;;5013217;28;20064;-73
2021/05/29 10:01:52;;;;;;;2.08;1.30;;;18.40;75.20;;;;;;5013039;28;20105;-72
2021/05/29 10:04:27;;;;;;;1.40;1.30;;;18.40;75.30;;;;;;4995887;28;20076;-72
2021/05/29 10:06:55;;;;;;;1.63;1.50;;;18.50;75.30;;;;;;5013432;28;20386;-72
2021/05/29 10:09:21;;;;;;;1.73;1.50;;;18.50;75.20;;;;;;5013311;28;20056;-72
2021/05/29 10:11:46;;;;;;;2.33;1.63;;;18.50;75.20;;;;;;5037507;23;20054;-76
2021/05/29 10:14:12;;;;;;;1.27;1.15;;;18.70;75.00;;;;;;5015440;28;20040;-76
2021/05/29 10:16:38;;;;;;;1.77;1.40;;;18.80;74.70;;;;;;5032679;28;20022;-77
2021/05/29 10:19:06;;;;;;;1.27;1.13;;;18.90;74.50;;;;;;5033130;28;20481;-76
2021/05/29 10:21:32;;;;;;;0.88;0.82;;;18.80;74.50;;;;;;5033266;28;20101;-76
2021/05/29 10:24:00;;;;;;;1.83;1.30;;;18.70;75.00;;;;;;5032990;28;20100;-77
2021/05/29 10:26:27;;;;;;;1.35;1.10;;;18.80;75.00;;;;;;5032929;28;20078;-76
2021/05/29 10:28:55;;;;;;;1.30;1.20;;;19.00;74.50;;;;;;5032558;28;20033;-77
2021/05/29 10:31:22;;;;;;;1.30;1.20;;;19.10;74.30;;;;;;5033156;28;20029;-76
2021/05/29 10:33:48;;;;;;;1.60;1.50;;;19.10;74.20;;;;;;5032930;28;20017;-77
2021/05/29 10:36:40;;;;;;;1.35;1.25;;;19.00;74.40;;;;;;5032959;28;20029;-78
2021/05/29 10:39:43;;;;;;;1.92;1.52;;;18.90;74.60;;;;;;5032797;28;20505;-76
2021/05/29 10:42:09;;;;;;;1.25;1.02;;;19.10;74.50;;;;;;5032933;28;20067;-77
2021/05/29 10:44:42;;;;;;;1.00;1.00;;;19.20;74.50;;;;;;5032427;28;20478;-77
2021/05/29 10:47:19;;;;;;;1.17;0.88;;;19.30;74.30;;;;;;5035616;28;20033;-77
2021/05/29 10:49:50;;;;;;;1.02;1.00;;;19.50;73.90;;;;;;5036841;28;20030;-77
2021/05/29 10:52:31;;;;;;;1.15;1.05;;;19.80;73.40;;;;;;5036855;28;20040;-75
2021/05/29 10:55:09;;;;;;;2.65;1.90;;;19.90;72.70;;;;;;5036638;28;20053;-77
2021/05/29 10:58:07;;;;;;;3.53;2.10;;;19.50;73.20;;;;;;5036662;28;20026;-76
2021/05/29 11:00:36;;;;;;;2.20;1.85;;;19.20;73.80;;;;;;5014206;28;20458;-76
2021/05/29 11:03:16;;;;;;;2.08;1.40;;;18.90;74.30;;;;;;5036491;28;20030;-77
2021/05/29 11:05:49;;;;;;;1.58;1.38;;;18.90;74.60;;;;;;5036462;28;20049;-76
2021/05/29 11:08:50;;;;;;;2.17;1.63;;;18.90;74.40;;;;;;5036390;28;20033;-77
2021/05/29 11:11:38;;;;;;;1.23;1.13;;;18.70;74.50;;;;;;5034326;28;20042;-76
2021/05/29 11:14:05;;;;;;;1.40;1.30;;;18.50;75.00;;;;;;5035864;28;20033;-76
2021/05/29 11:16:49;;;;;;;1.02;1.00;;;18.70;74.90;;;;;;5036342;28;20029;-76
2021/05/29 11:19:19;;;;;;;1.33;1.23;;;19.10;73.90;;;;;;5036159;28;20025;-78
2021/05/29 11:22:08;;;;;;;1.17;0.80;;;19.50;73.40;;;;;;5036260;28;20029;-78
2021/05/29 11:24:44;;;;;;;1.20;1.10;;;20.30;72.20;;;;;;5036270;28;20017;-77
2021/05/29 11:27:19;;;;;;;1.45;1.00;;;20.80;70.90;;;;;;5035804;28;20044;-77
2021/05/29 11:29:56;;;;;;;1.10;1.00;;;20.90;70.50;;;;;;5036180;28;20108;-76
2021/05/29 11:32:44;;;;;;;1.02;1.00;;;20.50;71.20;;;;;;5035936;28;20026;-76
2021/05/29 11:35:27;;;;;;;1.33;1.20;;;20.20;72.10;;;;;;5034712;28;20063;-75
2021/05/29 11:38:25;;;;;;;1.42;1.33;;;20.00;72.70;;;;;;5035906;28;20079;-77
2021/05/29 11:41:08;;;;;;;2.00;1.38;;;20.40;72.30;;;;;;5028195;28;20083;-78
2021/05/29 11:43:50;;;;;;;1.27;0.93;;;21.30;70.50;;;;;;5035357;28;20061;-77
2021/05/29 11:46:16;;;;;;;0.68;0.68;;;22.10;69.00;;;;;;5035769;28;20040;-77
2021/05/29 11:48:45;;;;;;;0.80;0.80;;;22.70;68.20;;;;;;5017948;28;20041;-77
2021/05/29 11:51:15;;;;;;;0.80;0.80;;;23.10;67.20;;;;;;5017748;28;20021;-78
2021/05/29 11:53:48;;;;;;;1.42;1.33;;;22.80;68.00;;;;;;5035709;28;20053;-76
2021/05/29 11:56:35;;;;;;;1.60;1.30;;;22.10;68.40;;;;;;5035092;28;20064;-79
2021/05/29 11:59:04;;;;;;;1.63;1.50;;;21.10;70.40;;;;;;5028615;28;20048;-77
2021/05/29 12:01:33;;;;;;;1.30;1.20;;;21.00;70.90;;;;;;5035512;28;20037;-77
2021/05/29 12:04:06;;;;;;;1.23;1.13;;;21.30;70.40;;;;;;5035406;28;20032;-76
2021/05/29 12:06:45;;;;;;;0.98;0.90;;;21.90;69.30;;;;;;5035286;28;20504;-78
2021/05/29 12:09:20;;;;;;;0.95;0.85;;;21.90;69.00;;;;;;5035382;28;20056;-77
2021/05/29 12:11:50;;;;;;;0.90;0.90;;;21.60;69.20;;;;;;5034610;28;20049;-78
2021/05/29 12:14:17;;;;;;;1.30;1.20;;;21.20;70.00;;;;;;5035078;28;20506;-77
2021/05/29 12:16:48;;;;;;;1.20;1.10;;;20.90;70.70;;;;;;5035246;28;20028;-79
2021/05/29 12:19:40;;;;;;;1.10;1.00;;;21.10;70.30;;;;;;5035307;28;20025;-77
2021/05/29 12:22:22;;;;;;;1.10;1.00;;;21.60;69.80;;;;;;5035066;28;20026;-78
2021/05/29 12:24:51;;;;;;;0.93;0.90;;;22.10;69.00;;;;;;5034898;28;20018;-77
2021/05/29 12:27:28;;;;;;;1.30;1.20;;;22.30;68.60;;;;;;5034943;28;20493;-78
2021/05/29 12:30:07;;;;;;;1.10;0.98;;;22.60;67.80;;;;;;5035037;28;20025;-76
2021/05/29 12:32:33;;;;;;;1.05;0.98;;;22.80;67.70;;;;;;5017111;28;20388;-76
2021/05/29 12:34:59;;;;;;;0.90;0.90;;;23.10;67.50;;;;;;5034870;28;20025;-76
2021/05/29 12:37:29;;;;;;;1.73;1.00;;;23.20;66.90;;;;;;5034895;28;20075;-75
2021/05/29 12:40:23;;;;;;;1.20;1.10;;;22.60;67.50;;;;;;5034272;28;20433;-77
2021/05/29 12:42:52;;;;;;;1.15;1.05;;;21.70;69.00;;;;;;5033354;28;20064;-76
2021/05/29 12:45:31;;;;;;;1.42;1.33;;;21.40;70.20;;;;;;5034529;28;20473;-75
2021/05/29 12:48:06;;;;;;;0.82;0.82;;;21.80;69.40;;;;;;5034492;28;20068;-75
2021/05/29 12:50:38;;;;;;;0.77;0.70;;;22.30;68.40;;;;;;5034463;28;20024;-76
2021/05/29 12:53:15;;;;;;;0.80;0.80;;;22.40;67.90;;;;;;5034634;28;20556;-75
2021/05/29 12:55:42;;;;;;;1.73;1.30;;;22.20;68.00;;;;;;5034110;28;20018;-75
2021/05/29 12:58:16;;;;;;;1.40;1.30;;;21.40;68.50;;;;;;5034569;28;20017;-77
2021/05/29 13:09:22;;;;;;;0.82;0.82;;;23.80;65.00;;;;;;5033113;28;20053;-77
2021/05/29 13:11:48;;;;;;;1.05;1.05;;;24.30;63.90;;;;;;5034060;28;20056;-79
2021/05/29 13:14:16;;;;;;;2.05;1.52;;;24.10;63.80;;;;;;5034185;28;20037;-77
2021/05/29 13:17:00;;;;;;;1.95;1.30;;;23.30;64.90;;;;;;5033771;28;20101;-77
2021/05/29 13:19:28;;;;;;;1.10;0.95;;;22.60;66.30;;;;;;5034079;28;20399;-77